Terminal Aerodrome Forecast
Issued by NWS

Home | Current Version | Previous Version | Text Only | Print | Product List | Glossary On
Versions: 1 2 3 4 5 6 7 8 9 10 11 12 13
000
FTUS41 KBTV 271722
TAFMPV
TAF
KMPV 271722Z 2718/2818 33012G18KT P6SM VCSH BKN025 OVC035
     FM272200 33014KT P6SM OVC025
     FM280300 01012KT P6SM OVC025
     FM281100 36011KT P6SM OVC050
     FM281500 36013G20KT P6SM BKN060=

USA.gov is the U.S. government's official web portal to all federal, state and local government web resources and services.